sensor_id;sensor_type;location;lat;lon;timestamp;temperature;humidity
1025;DHT22;501;48.214;11.350;2024-03-06T00:02:10;6.70;77.40
1025;DHT22;501;48.214;11.350;2024-03-06T00:04:36;6.70;76.70
1025;DHT22;501;48.214;11.350;2024-03-06T00:07:03;6.70;77.50
1025;DHT22;501;48.214;11.350;2024-03-06T00:09:28;6.80;78.20
1025;DHT22;501;48.214;11.350;2024-03-06T00:11:55;6.80;77.90
1025;DHT22;501;48.214;11.350;2024-03-06T00:14:22;6.80;76.50
1025;DHT22;501;48.214;11.350;2024-03-06T00:16:48;6.80;76.20
1025;DHT22;501;48.214;11.350;2024-03-06T00:19:17;6.80;76.00
1025;DHT22;501;48.214;11.350;2024-03-06T00:21:43;6.80;76.10
1025;DHT22;501;48.214;11.350;2024-03-06T00:24:12;6.80;75.80
1025;DHT22;501;48.214;11.350;2024-03-06T00:26:40;6.70;75.50
1025;DHT22;501;48.214;11.350;2024-03-06T00:29:06;6.70;76.00
1025;DHT22;501;48.214;11.350;2024-03-06T00:31:32;6.60;76.40
1025;DHT22;501;48.214;11.350;2024-03-06T00:33:57;6.60;77.30
1025;DHT22;501;48.214;11.350;2024-03-06T00:36:23;6.60;77.40
1025;DHT22;501;48.214;11.350;2024-03-06T00:38:49;6.50;77.80
1025;DHT22;501;48.214;11.350;2024-03-06T00:41:14;6.50;78.60
1025;DHT22;501;48.214;11.350;2024-03-06T00:43:41;6.50;79.60
1025;DHT22;501;48.214;11.350;2024-03-06T00:46:07;6.50;79.20
1025;DHT22;501;48.214;11.350;2024-03-06T00:48:33;6.50;79.90
1025;DHT22;501;48.214;11.350;2024-03-06T00:50:58;6.50;80.30
1025;DHT22;501;48.214;11.350;2024-03-06T00:53:24;6.40;80.80
1025;DHT22;501;48.214;11.350;2024-03-06T00:55:49;6.40;81.40
1025;DHT22;501;48.214;11.350;2024-03-06T00:58:15;6.40;82.20
1025;DHT22;501;48.214;11.350;2024-03-06T01:00:41;6.40;81.40
1025;DHT22;501;48.214;11.350;2024-03-06T01:03:06;6.40;82.10
1025;DHT22;501;48.214;11.350;2024-03-06T01:05:32;6.40;82.70
1025;DHT22;501;48.214;11.350;2024-03-06T01:07:58;6.40;83.30
1025;DHT22;501;48.214;11.350;2024-03-06T01:10:24;6.40;83.70
1025;DHT22;501;48.214;11.350;2024-03-06T01:12:50;6.40;84.50
1025;DHT22;501;48.214;11.350;2024-03-06T01:15:16;6.50;85.00
1025;DHT22;501;48.214;11.350;2024-03-06T01:17:42;6.40;84.50
1025;DHT22;501;48.214;11.350;2024-03-06T01:20:08;6.40;84.20
1025;DHT22;501;48.214;11.350;2024-03-06T01:22:34;6.50;84.20
1025;DHT22;501;48.214;11.350;2024-03-06T01:25:00;6.50;84.10
1025;DHT22;501;48.214;11.350;2024-03-06T01:27:29;6.50;83.60
1025;DHT22;501;48.214;11.350;2024-03-06T01:29:55;6.50;82.60
1025;DHT22;501;48.214;11.350;2024-03-06T01:32:20;6.50;82.40
1025;DHT22;501;48.214;11.350;2024-03-06T01:34:46;6.50;82.60
1025;DHT22;501;48.214;11.350;2024-03-06T01:37:12;6.60;82.20
1025;DHT22;501;48.214;11.350;2024-03-06T01:39:37;6.60;81.10
1025;DHT22;501;48.214;11.350;2024-03-06T01:42:03;6.60;80.50
1025;DHT22;501;48.214;11.350;2024-03-06T01:44:29;6.60;81.00
1025;DHT22;501;48.214;11.350;2024-03-06T01:46:55;6.50;80.30
1025;DHT22;501;48.214;11.350;2024-03-06T01:49:21;6.50;80.30
1025;DHT22;501;48.214;11.350;2024-03-06T01:51:53;6.50;80.30
1025;DHT22;501;48.214;11.350;2024-03-06T01:54:19;6.60;80.40
1025;DHT22;501;48.214;11.350;2024-03-06T01:56:47;6.50;80.30
1025;DHT22;501;48.214;11.350;2024-03-06T01:59:16;6.50;81.40
1025;DHT22;501;48.214;11.350;2024-03-06T02:01:42;6.60;80.40
1025;DHT22;501;48.214;11.350;2024-03-06T02:04:09;6.60;80.40
1025;DHT22;501;48.214;11.350;2024-03-06T02:06:41;6.60;80.30
1025;DHT22;501;48.214;11.350;2024-03-06T02:09:07;6.50;80.30
1025;DHT22;501;48.214;11.350;2024-03-06T02:11:34;6.50;80.30
1025;DHT22;501;48.214;11.350;2024-03-06T02:14:00;6.50;80.80
1025;DHT22;501;48.214;11.350;2024-03-06T02:16:26;6.50;81.60
1025;DHT22;501;48.214;11.350;2024-03-06T02:18:56;6.50;82.70
1025;DHT22;501;48.214;11.350;2024-03-06T02:21:25;6.50;81.40
1025;DHT22;501;48.214;11.350;2024-03-06T02:23:53;6.50;81.80
1025;DHT22;501;48.214;11.350;2024-03-06T02:26:20;6.50;82.00
1025;DHT22;501;48.214;11.350;2024-03-06T02:28:55;6.50;81.70
1025;DHT22;501;48.214;11.350;2024-03-06T02:31:21;6.50;81.70
1025;DHT22;501;48.214;11.350;2024-03-06T02:33:48;6.60;82.30
1025;DHT22;501;48.214;11.350;2024-03-06T02:36:17;6.60;82.50
1025;DHT22;501;48.214;11.350;2024-03-06T02:38:44;6.60;82.20
1025;DHT22;501;48.214;11.350;2024-03-06T02:41:10;6.60;82.00
1025;DHT22;501;48.214;11.350;2024-03-06T02:43:37;6.70;82.30
1025;DHT22;501;48.214;11.350;2024-03-06T02:46:03;6.70;82.10
1025;DHT22;501;48.214;11.350;2024-03-06T02:48:28;6.70;80.80
1025;DHT22;501;48.214;11.350;2024-03-06T02:50:55;6.80;80.50
1025;DHT22;501;48.214;11.350;2024-03-06T02:53:20;6.80;80.30
1025;DHT22;501;48.214;11.350;2024-03-06T02:55:47;6.70;79.40
1025;DHT22;501;48.214;11.350;2024-03-06T02:58:13;6.70;80.40
1025;DHT22;501;48.214;11.350;2024-03-06T03:00:42;6.70;80.40
1025;DHT22;501;48.214;11.350;2024-03-06T03:03:07;6.70;80.40
1025;DHT22;501;48.214;11.350;2024-03-06T03:05:33;6.70;79.80
1025;DHT22;501;48.214;11.350;2024-03-06T03:07:59;6.70;80.40
1025;DHT22;501;48.214;11.350;2024-03-06T03:10:25;6.70;80.50
1025;DHT22;501;48.214;11.350;2024-03-06T03:12:51;6.70;80.50
1025;DHT22;501;48.214;11.350;2024-03-06T03:15:17;6.70;80.50
1025;DHT22;501;48.214;11.350;2024-03-06T03:17:42;6.70;80.40
1025;DHT22;501;48.214;11.350;2024-03-06T03:20:08;6.80;80.50
1025;DHT22;501;48.214;11.350;2024-03-06T03:22:38;6.70;80.40
1025;DHT22;501;48.214;11.350;2024-03-06T03:25:07;6.80;79.70
1025;DHT22;501;48.214;11.350;2024-03-06T03:27:33;6.80;79.50
1025;DHT22;501;48.214;11.350;2024-03-06T03:29:59;6.80;78.90
1025;DHT22;501;48.214;11.350;2024-03-06T03:32:25;6.80;79.20
1025;DHT22;501;48.214;11.350;2024-03-06T03:34:50;6.80;78.30
1025;DHT22;501;48.214;11.350;2024-03-06T03:37:16;6.80;78.90
1025;DHT22;501;48.214;11.350;2024-03-06T03:39:44;6.70;79.40
1025;DHT22;501;48.214;11.350;2024-03-06T03:42:10;6.70;79.50
1025;DHT22;501;48.214;11.350;2024-03-06T03:44:35;6.70;79.60
1025;DHT22;501;48.214;11.350;2024-03-06T03:47:01;6.70;80.40
1025;DHT22;501;48.214;11.350;2024-03-06T03:49:27;6.70;80.30
1025;DHT22;501;48.214;11.350;2024-03-06T03:51:53;6.70;80.40
1025;DHT22;501;48.214;11.350;2024-03-06T03:54:19;6.70;80.50
1025;DHT22;501;48.214;11.350;2024-03-06T03:56:44;6.70;80.50
1025;DHT22;501;48.214;11.350;2024-03-06T03:59:10;6.80;80.50
1025;DHT22;501;48.214;11.350;2024-03-06T04:01:35;6.80;80.50
1025;DHT22;501;48.214;11.350;2024-03-06T04:04:01;6.80;79.10
1025;DHT22;501;48.214;11.350;2024-03-06T04:06:27;6.80;79.40
1025;DHT22;501;48.214;11.350;2024-03-06T04:08:52;6.80;79.20
1025;DHT22;501;48.214;11.350;2024-03-06T04:11:18;6.80;78.50
1025;DHT22;501;48.214;11.350;2024-03-06T04:13:44;6.80;78.60
1025;DHT22;501;48.214;11.350;2024-03-06T04:16:09;6.80;78.30
1025;DHT22;501;48.214;11.350;2024-03-06T04:18:35;6.80;78.40
1025;DHT22;501;48.214;11.350;2024-03-06T04:21:07;6.90;77.60
1025;DHT22;501;48.214;11.350;2024-03-06T04:23:34;6.90;77.10
1025;DHT22;501;48.214;11.350;2024-03-06T04:26:01;6.90;77.00
1025;DHT22;501;48.214;11.350;2024-03-06T04:28:27;6.90;77.00
1025;DHT22;501;48.214;11.350;2024-03-06T04:30:53;6.90;77.00
1025;DHT22;501;48.214;11.350;2024-03-06T04:33:19;6.90;76.70
1025;DHT22;501;48.214;11.350;2024-03-06T04:35:45;6.80;77.00
1025;DHT22;501;48.214;11.350;2024-03-06T04:38:11;6.80;77.60
1025;DHT22;501;48.214;11.350;2024-03-06T04:40:37;6.80;77.60
1025;DHT22;501;48.214;11.350;2024-03-06T04:43:03;6.80;77.90
1025;DHT22;501;48.214;11.350;2024-03-06T04:45:28;6.80;77.60
1025;DHT22;501;48.214;11.350;2024-03-06T04:47:55;6.90;78.00
1025;DHT22;501;48.214;11.350;2024-03-06T04:50:20;6.90;77.40
1025;DHT22;501;48.214;11.350;2024-03-06T04:52:46;6.90;77.20
1025;DHT22;501;48.214;11.350;2024-03-06T04:55:12;6.90;76.60
1025;DHT22;501;48.214;11.350;2024-03-06T04:57:42;6.90;76.60
1025;DHT22;501;48.214;11.350;2024-03-06T05:00:09;6.90;76.80
1025;DHT22;501;48.214;11.350;2024-03-06T05:02:35;6.90;76.90
1025;DHT22;501;48.214;11.350;2024-03-06T05:05:02;6.90;76.80
1025;DHT22;501;48.214;11.350;2024-03-06T05:07:30;6.90;76.70
1025;DHT22;501;48.214;11.350;2024-03-06T05:09:56;7.00;76.60
1025;DHT22;501;48.214;11.350;2024-03-06T05:12:26;7.00;75.90
1025;DHT22;501;48.214;11.350;2024-03-06T05:14:52;7.00;75.80
1025;DHT22;501;48.214;11.350;2024-03-06T05:17:18;7.10;76.10
1025;DHT22;501;48.214;11.350;2024-03-06T05:19:47;7.10;75.70
1025;DHT22;501;48.214;11.350;2024-03-06T05:22:14;7.10;74.80
1025;DHT22;501;48.214;11.350;2024-03-06T05:24:42;7.10;74.40
1025;DHT22;501;48.214;11.350;2024-03-06T05:27:08;7.10;74.00
1025;DHT22;501;48.214;11.350;2024-03-06T05:29:35;7.10;73.40
1025;DHT22;501;48.214;11.350;2024-03-06T05:32:02;7.10;72.80
1025;DHT22;501;48.214;11.350;2024-03-06T05:34:29;7.10;72.70
1025;DHT22;501;48.214;11.350;2024-03-06T05:36:55;7.10;72.90
1025;DHT22;501;48.214;11.350;2024-03-06T05:39:20;7.10;73.20
1025;DHT22;501;48.214;11.350;2024-03-06T05:41:46;7.10;72.70
1025;DHT22;501;48.214;11.350;2024-03-06T05:44:12;7.10;72.80
1025;DHT22;501;48.214;11.350;2024-03-06T05:46:37;7.00;73.50
1025;DHT22;501;48.214;11.350;2024-03-06T05:49:03;7.00;73.60
1025;DHT22;501;48.214;11.350;2024-03-06T05:51:30;7.00;74.00
1025;DHT22;501;48.214;11.350;2024-03-06T05:53:56;7.00;74.50
1025;DHT22;501;48.214;11.350;2024-03-06T05:56:21;7.00;74.80
1025;DHT22;501;48.214;11.350;2024-03-06T05:58:47;7.10;74.50
1025;DHT22;501;48.214;11.350;2024-03-06T06:01:15;7.10;74.20
1025;DHT22;501;48.214;11.350;2024-03-06T06:03:44;7.10;74.40
1025;DHT22;501;48.214;11.350;2024-03-06T06:06:10;7.10;74.20
1025;DHT22;501;48.214;11.350;2024-03-06T06:08:35;7.10;73.70
1025;DHT22;501;48.214;11.350;2024-03-06T06:11:04;7.10;74.50
1025;DHT22;501;48.214;11.350;2024-03-06T06:13:29;7.10;73.50
1025;DHT22;501;48.214;11.350;2024-03-06T06:15:58;7.10;73.80
1025;DHT22;501;48.214;11.350;2024-03-06T06:18:23;7.10;74.10
1025;DHT22;501;48.214;11.350;2024-03-06T06:20:49;7.10;73.60
1025;DHT22;501;48.214;11.350;2024-03-06T06:23:14;7.10;74.00
1025;DHT22;501;48.214;11.350;2024-03-06T06:25:40;7.10;74.20
1025;DHT22;501;48.214;11.350;2024-03-06T06:28:06;7.20;74.40
1025;DHT22;501;48.214;11.350;2024-03-06T06:30:32;7.20;74.10
1025;DHT22;501;48.214;11.350;2024-03-06T06:32:58;7.20;74.40
1025;DHT22;501;48.214;11.350;2024-03-06T06:35:23;7.20;74.60
1025;DHT22;501;48.214;11.350;2024-03-06T06:37:50;7.20;74.30
1025;DHT22;501;48.214;11.350;2024-03-06T06:40:16;7.20;73.80
1025;DHT22;501;48.214;11.350;2024-03-06T06:42:45;7.30;73.00
1025;DHT22;501;48.214;11.350;2024-03-06T06:45:20;7.30;73.00
1025;DHT22;501;48.214;11.350;2024-03-06T06:47:48;7.30;73.00
1025;DHT22;501;48.214;11.350;2024-03-06T06:50:15;7.30;72.90
1025;DHT22;501;48.214;11.350;2024-03-06T06:52:41;7.30;73.00
1025;DHT22;501;48.214;11.350;2024-03-06T06:55:07;7.30;72.90
1025;DHT22;501;48.214;11.350;2024-03-06T06:57:35;7.30;72.80
1025;DHT22;501;48.214;11.350;2024-03-06T07:00:01;7.30;72.90
1025;DHT22;501;48.214;11.350;2024-03-06T07:02:36;7.30;72.80
1025;DHT22;501;48.214;11.350;2024-03-06T07:05:02;7.40;72.60
1025;DHT22;501;48.214;11.350;2024-03-06T07:07:30;7.40;71.70
1025;DHT22;501;48.214;11.350;2024-03-06T07:09:55;7.40;71.90
1025;DHT22;501;48.214;11.350;2024-03-06T07:12:21;7.40;71.80
1025;DHT22;501;48.214;11.350;2024-03-06T07:14:47;7.40;72.00
1025;DHT22;501;48.214;11.350;2024-03-06T07:17:13;7.40;71.90
1025;DHT22;501;48.214;11.350;2024-03-06T07:19:38;7.40;71.40
1025;DHT22;501;48.214;11.350;2024-03-06T07:22:05;7.40;71.40
1025;DHT22;501;48.214;11.350;2024-03-06T07:24:30;7.40;71.90
1025;DHT22;501;48.214;11.350;2024-03-06T07:26:56;7.30;72.20
1025;DHT22;501;48.214;11.350;2024-03-06T07:29:22;7.40;72.90
1025;DHT22;501;48.214;11.350;2024-03-06T07:31:47;7.40;73.10
1025;DHT22;501;48.214;11.350;2024-03-06T07:34:13;7.40;73.30
1025;DHT22;501;48.214;11.350;2024-03-06T07:36:40;7.50;73.10
1025;DHT22;501;48.214;11.350;2024-03-06T07:39:06;7.50;73.10
1025;DHT22;501;48.214;11.350;2024-03-06T07:41:32;7.50;72.80
1025;DHT22;501;48.214;11.350;2024-03-06T07:43:58;7.50;72.80
1025;DHT22;501;48.214;11.350;2024-03-06T07:46:25;7.50;72.60
1025;DHT22;501;48.214;11.350;2024-03-06T07:48:53;7.50;72.70
1025;DHT22;501;48.214;11.350;2024-03-06T07:51:18;7.50;72.00
1025;DHT22;501;48.214;11.350;2024-03-06T07:53:44;7.50;72.60
1025;DHT22;501;48.214;11.350;2024-03-06T07:56:13;7.50;72.30
1025;DHT22;501;48.214;11.350;2024-03-06T07:58:39;7.60;72.00
1025;DHT22;501;48.214;11.350;2024-03-06T08:01:06;7.60;71.60
1025;DHT22;501;48.214;11.350;2024-03-06T08:03:33;7.60;72.30
1025;DHT22;501;48.214;11.350;2024-03-06T08:05:59;7.50;73.00
1025;DHT22;501;48.214;11.350;2024-03-06T08:08:25;7.60;72.10
1025;DHT22;501;48.214;11.350;2024-03-06T08:10:51;7.60;72.20
1025;DHT22;501;48.214;11.350;2024-03-06T08:13:17;7.60;73.00
1025;DHT22;501;48.214;11.350;2024-03-06T08:15:44;7.60;73.20
1025;DHT22;501;48.214;11.350;2024-03-06T08:18:10;7.60;73.70
1025;DHT22;501;48.214;11.350;2024-03-06T08:20:36;7.70;73.90
1025;DHT22;501;48.214;11.350;2024-03-06T08:23:03;7.70;73.70
1025;DHT22;501;48.214;11.350;2024-03-06T08:25:28;7.70;72.60
1025;DHT22;501;48.214;11.350;2024-03-06T08:27:54;7.70;72.10
1025;DHT22;501;48.214;11.350;2024-03-06T08:30:20;7.70;71.70
1025;DHT22;501;48.214;11.350;2024-03-06T08:32:46;7.80;71.10
1025;DHT22;501;48.214;11.350;2024-03-06T08:35:12;7.70;70.20
1025;DHT22;501;48.214;11.350;2024-03-06T08:37:41;7.70;70.70
1025;DHT22;501;48.214;11.350;2024-03-06T08:40:08;7.70;70.90
1025;DHT22;501;48.214;11.350;2024-03-06T08:42:40;7.60;71.50
1025;DHT22;501;48.214;11.350;2024-03-06T08:45:07;7.70;71.90
1025;DHT22;501;48.214;11.350;2024-03-06T08:47:33;7.60;71.40
1025;DHT22;501;48.214;11.350;2024-03-06T08:49:59;7.60;72.90
1025;DHT22;501;48.214;11.350;2024-03-06T08:52:25;7.70;73.30
1025;DHT22;501;48.214;11.350;2024-03-06T08:54:50;7.70;73.90
1025;DHT22;501;48.214;11.350;2024-03-06T08:57:16;7.70;74.00
1025;DHT22;501;48.214;11.350;2024-03-06T08:59:42;7.70;73.30
1025;DHT22;501;48.214;11.350;2024-03-06T09:02:18;7.80;73.30
1025;DHT22;501;48.214;11.350;2024-03-06T09:04:46;7.80;73.40
1025;DHT22;501;48.214;11.350;2024-03-06T09:07:12;7.80;72.70
1025;DHT22;501;48.214;11.350;2024-03-06T09:09:39;7.80;71.00
1025;DHT22;501;48.214;11.350;2024-03-06T09:14:32;7.80;70.80
1025;DHT22;501;48.214;11.350;2024-03-06T09:16:58;7.80;70.80
1025;DHT22;501;48.214;11.350;2024-03-06T09:19:23;7.80;70.30
1025;DHT22;501;48.214;11.350;2024-03-06T09:21:49;7.80;69.80
1025;DHT22;501;48.214;11.350;2024-03-06T09:24:14;7.80;70.50
1025;DHT22;501;48.214;11.350;2024-03-06T09:26:40;7.90;71.10
1025;DHT22;501;48.214;11.350;2024-03-06T09:29:06;7.80;70.30
1025;DHT22;501;48.214;11.350;2024-03-06T09:31:31;7.90;69.50
1025;DHT22;501;48.214;11.350;2024-03-06T09:33:57;7.90;70.30
1025;DHT22;501;48.214;11.350;2024-03-06T09:36:23;7.90;71.40
1025;DHT22;501;48.214;11.350;2024-03-06T09:38:50;7.90;71.80
1025;DHT22;501;48.214;11.350;2024-03-06T09:41:16;8.00;70.80
1025;DHT22;501;48.214;11.350;2024-03-06T09:43:46;8.00;72.50
1025;DHT22;501;48.214;11.350;2024-03-06T09:46:12;8.00;73.50
1025;DHT22;501;48.214;11.350;2024-03-06T09:48:46;8.00;73.50
1025;DHT22;501;48.214;11.350;2024-03-06T09:51:12;8.10;72.20
1025;DHT22;501;48.214;11.350;2024-03-06T09:53:38;8.00;70.20
1025;DHT22;501;48.214;11.350;2024-03-06T09:56:05;8.00;71.10
1025;DHT22;501;48.214;11.350;2024-03-06T09:58:31;7.90;71.80
1025;DHT22;501;48.214;11.350;2024-03-06T10:00:59;8.00;71.60
1025;DHT22;501;48.214;11.350;2024-03-06T10:03:26;7.90;71.10
1025;DHT22;501;48.214;11.350;2024-03-06T10:05:52;7.90;71.50
1025;DHT22;501;48.214;11.350;2024-03-06T10:08:20;7.90;71.70
1025;DHT22;501;48.214;11.350;2024-03-06T10:10:49;7.90;71.70
1025;DHT22;501;48.214;11.350;2024-03-06T10:13:18;7.90;71.30
1025;DHT22;501;48.214;11.350;2024-03-06T10:16:01;7.90;71.80
1025;DHT22;501;48.214;11.350;2024-03-06T10:18:31;7.90;72.60
1025;DHT22;501;48.214;11.350;2024-03-06T10:20:57;7.90;73.50
1025;DHT22;501;48.214;11.350;2024-03-06T10:23:23;7.90;73.50
1025;DHT22;501;48.214;11.350;2024-03-06T10:25:50;7.90;75.70
1025;DHT22;501;48.214;11.350;2024-03-06T10:28:18;7.90;76.70
1025;DHT22;501;48.214;11.350;2024-03-06T10:30:44;8.00;76.70
1025;DHT22;501;48.214;11.350;2024-03-06T10:33:15;8.00;76.00
1025;DHT22;501;48.214;11.350;2024-03-06T10:35:43;8.00;75.50
1025;DHT22;501;48.214;11.350;2024-03-06T10:38:09;8.00;73.90
1025;DHT22;501;48.214;11.350;2024-03-06T10:40:38;8.10;74.00
1025;DHT22;501;48.214;11.350;2024-03-06T10:43:07;8.10;73.60
1025;DHT22;501;48.214;11.350;2024-03-06T10:45:58;8.10;72.60
1025;DHT22;501;48.214;11.350;2024-03-06T10:48:19;8.20;72.20
1025;DHT22;501;48.214;11.350;2024-03-06T10:50:48;8.10;69.50
1025;DHT22;501;48.214;11.350;2024-03-06T10:53:16;8.10;69.00
1025;DHT22;501;48.214;11.350;2024-03-06T10:55:45;8.10;68.90
1025;DHT22;501;48.214;11.350;2024-03-06T10:58:11;8.20;69.70
1025;DHT22;501;48.214;11.350;2024-03-06T11:00:41;8.20;70.30
1025;DHT22;501;48.214;11.350;2024-03-06T11:03:09;8.30;71.20
1025;DHT22;501;48.214;11.350;2024-03-06T11:05:46;8.30;71.70
1025;DHT22;501;48.214;11.350;2024-03-06T11:08:14;8.40;69.60
1025;DHT22;501;48.214;11.350;2024-03-06T11:10:42;8.40;69.60
1025;DHT22;501;48.214;11.350;2024-03-06T11:15:45;8.40;69.70
1025;DHT22;501;48.214;11.350;2024-03-06T11:23:31;8.40;66.90
1025;DHT22;501;48.214;11.350;2024-03-06T11:28:30;8.40;65.60
1025;DHT22;501;48.214;11.350;2024-03-06T11:30:56;8.40;65.60
1025;DHT22;501;48.214;11.350;2024-03-06T11:33:34;8.40;65.60
1025;DHT22;501;48.214;11.350;2024-03-06T11:38:51;8.40;65.60
1025;DHT22;501;48.214;11.350;2024-03-06T11:41:28;8.40;65.60
1025;DHT22;501;48.214;11.350;2024-03-06T11:43:55;8.40;65.60
1025;DHT22;501;48.214;11.350;2024-03-06T11:51:47;8.30;64.60
1025;DHT22;501;48.214;11.350;2024-03-06T11:54:13;8.30;64.80
1025;DHT22;501;48.214;11.350;2024-03-06T11:56:40;8.30;64.10
1025;DHT22;501;48.214;11.350;2024-03-06T11:59:06;8.30;62.00
1025;DHT22;501;48.214;11.350;2024-03-06T12:01:36;8.20;62.40
1025;DHT22;501;48.214;11.350;2024-03-06T12:04:03;8.10;61.80
1025;DHT22;501;48.214;11.350;2024-03-06T12:06:31;8.10;62.40
1025;DHT22;501;48.214;11.350;2024-03-06T12:08:58;8.10;62.30
1025;DHT22;501;48.214;11.350;2024-03-06T12:11:24;8.10;62.80
1025;DHT22;501;48.214;11.350;2024-03-06T12:13:54;8.10;63.00
1025;DHT22;501;48.214;11.350;2024-03-06T12:16:21;8.00;62.40
1025;DHT22;501;48.214;11.350;2024-03-06T12:18:46;8.00;62.60
1025;DHT22;501;48.214;11.350;2024-03-06T12:21:19;7.90;62.50
1025;DHT22;501;48.214;11.350;2024-03-06T12:23:44;7.90;62.80
1025;DHT22;501;48.214;11.350;2024-03-06T12:26:10;7.90;62.40
1025;DHT22;501;48.214;11.350;2024-03-06T12:28:38;7.90;63.00
1025;DHT22;501;48.214;11.350;2024-03-06T12:31:08;7.90;63.60
1025;DHT22;501;48.214;11.350;2024-03-06T12:33:33;7.90;64.20
1025;DHT22;501;48.214;11.350;2024-03-06T12:36:06;7.90;64.30
1025;DHT22;501;48.214;11.350;2024-03-06T12:38:36;7.90;63.10
1025;DHT22;501;48.214;11.350;2024-03-06T12:41:02;7.90;62.30
1025;DHT22;501;48.214;11.350;2024-03-06T12:43:28;7.90;61.80
1025;DHT22;501;48.214;11.350;2024-03-06T12:45:58;7.90;62.50
1025;DHT22;501;48.214;11.350;2024-03-06T12:48:24;7.90;62.60
1025;DHT22;501;48.214;11.350;2024-03-06T12:50:51;7.90;63.40
1025;DHT22;501;48.214;11.350;2024-03-06T12:53:21;7.80;62.60
1025;DHT22;501;48.214;11.350;2024-03-06T12:55:47;7.80;62.80
1025;DHT22;501;48.214;11.350;2024-03-06T12:58:13;7.90;63.80
1025;DHT22;501;48.214;11.350;2024-03-06T13:00:40;7.90;64.40
1025;DHT22;501;48.214;11.350;2024-03-06T13:03:06;7.90;64.90
1025;DHT22;501;48.214;11.350;2024-03-06T13:05:32;7.90;63.90
1025;DHT22;501;48.214;11.350;2024-03-06T13:07:58;7.90;63.50
1025;DHT22;501;48.214;11.350;2024-03-06T13:10:27;7.90;63.50
1025;DHT22;501;48.214;11.350;2024-03-06T13:12:53;8.00;63.70
1025;DHT22;501;48.214;11.350;2024-03-06T13:15:19;8.00;63.80
1025;DHT22;501;48.214;11.350;2024-03-06T13:17:44;8.00;64.40
1025;DHT22;501;48.214;11.350;2024-03-06T13:20:10;8.00;62.80
1025;DHT22;501;48.214;11.350;2024-03-06T13:22:39;8.00;62.30
1025;DHT22;501;48.214;11.350;2024-03-06T13:25:05;8.00;61.90
1025;DHT22;501;48.214;11.350;2024-03-06T13:27:31;8.00;62.50
1025;DHT22;501;48.214;11.350;2024-03-06T13:29:57;8.00;61.80
1025;DHT22;501;48.214;11.350;2024-03-06T13:32:23;8.00;60.80
1025;DHT22;501;48.214;11.350;2024-03-06T13:34:49;8.00;61.60
1025;DHT22;501;48.214;11.350;2024-03-06T13:37:16;8.00;61.90
1025;DHT22;501;48.214;11.350;2024-03-06T13:39:42;7.90;61.70
1025;DHT22;501;48.214;11.350;2024-03-06T13:42:08;7.90;61.50
1025;DHT22;501;48.214;11.350;2024-03-06T13:44:37;7.90;60.30
1025;DHT22;501;48.214;11.350;2024-03-06T13:47:03;7.90;60.50
1025;DHT22;501;48.214;11.350;2024-03-06T13:49:40;7.90;61.00
1025;DHT22;501;48.214;11.350;2024-03-06T13:52:07;7.90;60.80
1025;DHT22;501;48.214;11.350;2024-03-06T13:54:34;7.90;61.40
1025;DHT22;501;48.214;11.350;2024-03-06T13:57:00;7.90;62.50
1025;DHT22;501;48.214;11.350;2024-03-06T13:59:30;7.90;62.70
1025;DHT22;501;48.214;11.350;2024-03-06T14:01:57;7.90;62.70
1025;DHT22;501;48.214;11.350;2024-03-06T14:04:24;7.90;63.10
1025;DHT22;501;48.214;11.350;2024-03-06T14:06:50;7.90;62.90
1025;DHT22;501;48.214;11.350;2024-03-06T14:09:16;7.90;62.30
1025;DHT22;501;48.214;11.350;2024-03-06T14:11:41;7.90;62.00
1025;DHT22;501;48.214;11.350;2024-03-06T14:14:08;7.90;62.30
1025;DHT22;501;48.214;11.350;2024-03-06T14:16:35;7.90;62.30
1025;DHT22;501;48.214;11.350;2024-03-06T14:19:01;8.00;61.50
1025;DHT22;501;48.214;11.350;2024-03-06T14:21:26;8.00;61.10
1025;DHT22;501;48.214;11.350;2024-03-06T14:23:52;8.00;61.00
1025;DHT22;501;48.214;11.350;2024-03-06T14:26:18;8.00;61.70
1025;DHT22;501;48.214;11.350;2024-03-06T14:28:43;8.10;61.50
1025;DHT22;501;48.214;11.350;2024-03-06T14:31:09;8.10;61.60
1025;DHT22;501;48.214;11.350;2024-03-06T14:33:39;8.10;61.00
1025;DHT22;501;48.214;11.350;2024-03-06T14:36:05;8.10;60.20
1025;DHT22;501;48.214;11.350;2024-03-06T14:38:32;8.00;59.00
1025;DHT22;501;48.214;11.350;2024-03-06T14:40:58;8.00;59.30
1025;DHT22;501;48.214;11.350;2024-03-06T14:43:24;8.00;59.70
1025;DHT22;501;48.214;11.350;2024-03-06T14:45:50;7.90;59.00
1025;DHT22;501;48.214;11.350;2024-03-06T14:48:17;7.80;58.60
1025;DHT22;501;48.214;11.350;2024-03-06T14:50:43;7.80;58.70
1025;DHT22;501;48.214;11.350;2024-03-06T14:53:09;7.70;59.40
1025;DHT22;501;48.214;11.350;2024-03-06T14:55:35;7.60;59.30
1025;DHT22;501;48.214;11.350;2024-03-06T14:58:00;7.60;59.60
1025;DHT22;501;48.214;11.350;2024-03-06T15:00:26;7.50;59.80
1025;DHT22;501;48.214;11.350;2024-03-06T15:02:52;7.40;61.00
1025;DHT22;501;48.214;11.350;2024-03-06T15:05:17;7.40;60.80
1025;DHT22;501;48.214;11.350;2024-03-06T15:07:43;7.40;60.80
1025;DHT22;501;48.214;11.350;2024-03-06T15:10:09;7.30;61.00
1025;DHT22;501;48.214;11.350;2024-03-06T15:12:35;7.30;60.70
1025;DHT22;501;48.214;11.350;2024-03-06T15:15:03;7.30;60.40
1025;DHT22;501;48.214;11.350;2024-03-06T15:17:32;7.20;61.10
1025;DHT22;501;48.214;11.350;2024-03-06T15:19:58;7.20;61.90
1025;DHT22;501;48.214;11.350;2024-03-06T15:22:24;7.20;61.90
1025;DHT22;501;48.214;11.350;2024-03-06T15:24:50;7.20;63.20
1025;DHT22;501;48.214;11.350;2024-03-06T15:27:18;7.30;63.80
1025;DHT22;501;48.214;11.350;2024-03-06T15:29:44;7.30;63.90
1025;DHT22;501;48.214;11.350;2024-03-06T15:32:09;7.30;63.60
1025;DHT22;501;48.214;11.350;2024-03-06T15:34:38;7.30;62.90
1025;DHT22;501;48.214;11.350;2024-03-06T15:37:04;7.30;61.90
1025;DHT22;501;48.214;11.350;2024-03-06T15:39:30;7.30;61.30
1025;DHT22;501;48.214;11.350;2024-03-06T15:41:56;7.30;61.40
1025;DHT22;501;48.214;11.350;2024-03-06T15:44:22;7.30;60.10
1025;DHT22;501;48.214;11.350;2024-03-06T15:46:49;7.20;60.60
1025;DHT22;501;48.214;11.350;2024-03-06T15:49:23;7.20;60.60
1025;DHT22;501;48.214;11.350;2024-03-06T15:51:51;7.20;59.80
1025;DHT22;501;48.214;11.350;2024-03-06T15:54:18;7.20;59.90
1025;DHT22;501;48.214;11.350;2024-03-06T15:56:44;7.20;60.20
1025;DHT22;501;48.214;11.350;2024-03-06T15:59:10;7.20;59.40
1025;DHT22;501;48.214;11.350;2024-03-06T16:01:35;7.20;59.90
1025;DHT22;501;48.214;11.350;2024-03-06T16:04:01;7.10;59.50
1025;DHT22;501;48.214;11.350;2024-03-06T16:06:26;7.10;60.00
1025;DHT22;501;48.214;11.350;2024-03-06T16:08:53;7.00;60.60
1025;DHT22;501;48.214;11.350;2024-03-06T16:11:19;7.00;61.20
1025;DHT22;501;48.214;11.350;2024-03-06T16:13:44;7.00;61.70
1025;DHT22;501;48.214;11.350;2024-03-06T16:16:10;7.00;62.60
1025;DHT22;501;48.214;11.350;2024-03-06T16:18:36;7.10;62.60
1025;DHT22;501;48.214;11.350;2024-03-06T16:21:01;7.10;60.80
1025;DHT22;501;48.214;11.350;2024-03-06T16:23:27;7.10;60.90
1025;DHT22;501;48.214;11.350;2024-03-06T16:25:54;7.10;59.90
1025;DHT22;501;48.214;11.350;2024-03-06T16:28:19;7.00;58.00
1025;DHT22;501;48.214;11.350;2024-03-06T16:30:45;7.00;59.50
1025;DHT22;501;48.214;11.350;2024-03-06T16:33:11;7.00;60.00
1025;DHT22;501;48.214;11.350;2024-03-06T16:35:37;7.00;60.50